Time;durP1;ratioP1;P1;durP2;ratioP2;P2;SDS_P1;SDS_P2;PMS_P1;PMS_P2;Temp;Humidity;BMP_temperature;BMP_pressure;BME280_temperature;BME280_humidity;BME280_pressure;Samples;Min_cycle;Max_cycle;Signal;HPM_P1;HPM_P2
2021/10/16 00:00:14;;;;;;;;;;;;;;;;;;5014932;28;19916;-81
2021/10/16 00:02:39;;;;;;;;;;;;;;;;;;4998164;28;20020;-81
2021/10/16 00:05:05;;;;;;;;;;;;;;;;;;4998866;28;20023;-81
2021/10/16 00:07:32;;;;;;;;;;;;;;;;;;5014592;28;19927;-81
2021/10/16 00:09:57;;;;;;;;;;;;;;;;;;4998473;28;19959;-81
2021/10/16 00:12:22;;;;;;;;;;;;;;;;;;4981666;28;19956;-80
2021/10/16 00:14:48;;;;;;;;;;;;;;;;;;5014873;28;20279;-81
2021/10/16 00:17:13;;;;;;;;;;;;;;;;;;4997559;28;20403;-81
2021/10/16 00:19:38;;;;;;;;;;;;;;;;;;4998439;28;19924;-81
2021/10/16 00:22:04;;;;;;;;;;;;;;;;;;5014629;28;19925;-81
2021/10/16 00:24:30;;;;;;;;;;;;;;;;;;4998121;28;20405;-80
2021/10/16 00:26:56;;;;;;;;;;;;;;;;;;5013114;28;19972;-81
2021/10/16 00:29:21;;;;;;;;;;;;;;;;;;4994892;28;19957;-80
2021/10/16 00:31:47;;;;;;;;;;;;;;;;;;4999780;28;19917;-81
2021/10/16 00:34:12;;;;;;;;;;;;;;;;;;4998314;28;19920;-81
2021/10/16 00:36:37;;;;;;;;;;;;;;;;;;5014281;28;19936;-81
2021/10/16 00:39:03;;;;;;;;;;;;;;;;;;5014304;28;20004;-81
2021/10/16 00:41:28;;;;;;;;;;;;;;;;;;5011917;28;20004;-81
2021/10/16 00:44:12;;;;;;;;;;;;;;;;;;4981427;28;19947;-81
2021/10/16 00:46:37;;;;;;;;;;;;;;;;;;5014101;28;19913;-80
2021/10/16 00:49:03;;;;;;;;;;;;;;;;;;5014408;28;19924;-81
2021/10/16 00:51:28;;;;;;;;;;;;;;;;;;4997599;28;19924;-81
2021/10/16 00:53:53;;;;;;;;;;;;;;;;;;5019958;28;19920;-81
2021/10/16 00:56:19;;;;;;;;;;;;;;;;;;5024346;28;20004;-81
2021/10/16 00:58:44;;;;;;;;;;;;;;;;;;5014163;28;19913;-81
2021/10/16 01:01:09;;;;;;;;;;;;;;;;;;4997938;28;20024;-80
2021/10/16 01:03:35;;;;;;;;;;;;;;;;;;5014516;28;19957;-81
2021/10/16 01:06:00;;;;;;;;;;;;;;;;;;5014296;28;19917;-81
2021/10/16 01:08:25;;;;;;;;;;;;;;;;;;4997466;28;19917;-81
2021/10/16 01:10:51;;;;;;;;;;;;;;;;;;5007082;28;19928;-80
2021/10/16 01:13:16;;;;;;;;;;;;;;;;;;5027107;28;19917;-81
2021/10/16 01:15:42;;;;;;;;;;;;;;;;;;5014680;28;19917;-80
2021/10/16 01:18:07;;;;;;;;;;;;;;;;;;4997791;28;19913;-81
2021/10/16 01:20:32;;;;;;;;;;;;;;;;;;5001119;28;19975;-81
2021/10/16 01:22:58;;;;;;;;;;;;;;;;;;5022303;28;19967;-81
2021/10/16 01:25:23;;;;;;;;;;;;;;;;;;4995805;28;20367;-81
2021/10/16 01:27:49;;;;;;;;;;;;;;;;;;5001450;28;19988;-81
2021/10/16 01:30:16;;;;;;;;;;;;;;;;;;5018125;28;19920;-81
2021/10/16 01:32:42;;;;;;;;;;;;;;;;;;4985146;28;20024;-81
2021/10/16 01:35:08;;;;;;;;;;;;;;;;;;5001104;28;19917;-81
2021/10/16 01:37:34;;;;;;;;;;;;;;;;;;5000789;28;19923;-81
2021/10/16 01:39:59;;;;;;;;;;;;;;;;;;5000574;28;19917;-81
2021/10/16 01:42:24;;;;;;;;;;;;;;;;;;5017096;28;19917;-80
2021/10/16 01:44:50;;;;;;;;;;;;;;;;;;5017302;28;19921;-81
2021/10/16 01:47:15;;;;;;;;;;;;;;;;;;5000815;28;19925;-81
2021/10/16 01:49:40;;;;;;;;;;;;;;;;;;5017356;28;20079;-80
2021/10/16 01:52:06;;;;;;;;;;;;;;;;;;5016912;28;19928;-80
2021/10/16 01:54:31;;;;;;;;;;;;;;;;;;5015989;28;19963;-81
2021/10/16 01:56:57;;;;;;;;;;;;;;;;;;5000642;28;19913;-81
2021/10/16 01:59:22;;;;;;;;;;;;;;;;;;5000958;28;20322;-81
2021/10/16 02:01:48;;;;;;;;;;;;;;;;;;5017295;28;19920;-81
2021/10/16 02:04:13;;;;;;;;;;;;;;;;;;4984348;28;19925;-81
2021/10/16 02:06:39;;;;;;;;;;;;;;;;;;5000704;28;19917;-81
2021/10/16 02:09:05;;;;;;;;;;;;;;;;;;5016434;28;19913;-81
2021/10/16 02:11:30;;;;;;;;;;;;;;;;;;4985202;28;19917;-81
2021/10/16 02:13:55;;;;;;;;;;;;;;;;;;4999810;28;20272;-81
2021/10/16 02:16:21;;;;;;;;;;;;;;;;;;4997555;28;19929;-81
2021/10/16 02:18:46;;;;;;;;;;;;;;;;;;4981028;28;20447;-81
2021/10/16 02:21:11;;;;;;;;;;;;;;;;;;5010368;28;19924;-81
2021/10/16 02:23:37;;;;;;;;;;;;;;;;;;4983648;28;20330;-81
2021/10/16 02:26:02;;;;;;;;;;;;;;;;;;5016016;28;19917;-81
2021/10/16 02:28:28;;;;;;;;;;;;;;;;;;5016552;28;19940;-81
2021/10/16 02:30:53;;;;;;;;;;;;;;;;;;5016793;28;19913;-81
2021/10/16 02:33:18;;;;;;;;;;;;;;;;;;5016370;28;19917;-81
2021/10/16 02:35:44;;;;;;;;;;;;;;;;;;5017107;28;19919;-81
2021/10/16 02:38:09;;;;;;;;;;;;;;;;;;4994249;28;19917;-81
2021/10/16 02:40:34;;;;;;;;;;;;;;;;;;4986479;28;19921;-81
2021/10/16 02:43:02;;;;;;;;;;;;;;;;;;4999644;28;19977;-81
2021/10/16 02:45:28;;;;;;;;;;;;;;;;;;5016976;28;19944;-81
2021/10/16 02:47:53;;;;;;;;;;;;;;;;;;4999770;28;19913;-81
2021/10/16 02:50:19;;;;;;;;;;;;;;;;;;5016404;28;19925;-81
2021/10/16 02:52:44;;;;;;;;;;;;;;;;;;5015711;28;20011;-81
2021/10/16 02:55:10;;;;;;;;;;;;;;;;;;5015865;28;19921;-81
2021/10/16 02:57:35;;;;;;;;;;;;;;;;;;5008838;28;19929;-81
2021/10/16 03:00:01;;;;;;;;;;;;;;;;;;5016308;28;19920;-81
2021/10/16 03:02:26;;;;;;;;;;;;;;;;;;5013970;28;19924;-81
2021/10/16 03:04:51;;;;;;;;;;;;;;;;;;5016052;28;19917;-81
2021/10/16 03:07:17;;;;;;;;;;;;;;;;;;5015877;28;19917;-80
2021/10/16 03:09:42;;;;;;;;;;;;;;;;;;4999453;28;20004;-81
2021/10/16 03:12:08;;;;;;;;;;;;;;;;;;5004763;28;19917;-81
2021/10/16 03:14:33;;;;;;;;;;;;;;;;;;4999207;28;19917;-81
2021/10/16 03:16:58;;;;;;;;;;;;;;;;;;5015342;28;19917;-81
2021/10/16 03:19:24;;;;;;;;;;;;;;;;;;4999387;28;19917;-81
2021/10/16 03:21:49;;;;;;;;;;;;;;;;;;5015522;28;20260;-81
2021/10/16 03:24:14;;;;;;;;;;;;;;;;;;5015619;28;19921;-81
2021/10/16 03:26:39;;;;;;;;;;;;;;;;;;5015769;28;20027;-81
2021/10/16 03:29:05;;;;;;;;;;;;;;;;;;5015873;28;19928;-81
2021/10/16 03:31:30;;;;;;;;;;;;;;;;;;4999730;28;19916;-81
2021/10/16 03:33:55;;;;;;;;;;;;;;;;;;5015796;28;20314;-81
2021/10/16 03:36:21;;;;;;;;;;;;;;;;;;5015013;28;19921;-82
2021/10/16 03:38:46;;;;;;;;;;;;;;;;;;5015235;28;19921;-81
2021/10/16 03:41:11;;;;;;;;;;;;;;;;;;5014411;28;20411;-81
2021/10/16 03:43:37;;;;;;;;;;;;;;;;;;5014467;28;19917;-81
2021/10/16 03:46:02;;;;;;;;;;;;;;;;;;4999151;28;20004;-80
2021/10/16 03:48:27;;;;;;;;;;;;;;;;;;4998775;28;19917;-81
2021/10/16 03:50:53;;;;;;;;;;;;;;;;;;4998786;28;20018;-81
2021/10/16 03:53:18;;;;;;;;;;;;;;;;;;5011340;28;19925;-81
2021/10/16 03:55:44;;;;;;;;;;;;;;;;;;4998843;28;19920;-81
2021/10/16 03:58:09;;;;;;;;;;;;;;;;;;4998209;28;19957;-81
2021/10/16 04:00:35;;;;;;;;;;;;;;;;;;4982243;28;19913;-81
2021/10/16 04:03:04;;;;;;;;;;;;;;;;;;4998010;28;20342;-81
2021/10/16 04:05:30;;;;;;;;;;;;;;;;;;5017006;28;19987;-80
2021/10/16 04:07:55;;;;;;;;;;;;;;;;;;4998326;28;20371;-81
2021/10/16 04:10:21;;;;;;;;;;;;;;;;;;5014919;28;19924;-82
2021/10/16 04:12:46;;;;;;;;;;;;;;;;;;5014456;28;19940;-81
2021/10/16 04:15:11;;;;;;;;;;;;;;;;;;4997467;28;19921;-81
2021/10/16 04:17:37;;;;;;;;;;;;;;;;;;4997951;28;19917;-81
2021/10/16 04:20:02;;;;;;;;;;;;;;;;;;5014245;28;19975;-81
2021/10/16 04:22:29;;;;;;;;;;;;;;;;;;5014125;28;19925;-81
2021/10/16 04:24:54;;;;;;;;;;;;;;;;;;5014364;28;19959;-81
2021/10/16 04:27:22;;;;;;;;;;;;;;;;;;5014620;28;20389;-81
2021/10/16 04:29:47;;;;;;;;;;;;;;;;;;4998781;28;20019;-81
2021/10/16 04:32:12;;;;;;;;;;;;;;;;;;5014737;28;19959;-81
2021/10/16 04:34:38;;;;;;;;;;;;;;;;;;4998384;28;19921;-81
2021/10/16 04:37:03;;;;;;;;;;;;;;;;;;4997819;28;19924;-81
2021/10/16 04:39:29;;;;;;;;;;;;;;;;;;5013846;28;19924;-81
2021/10/16 04:41:54;;;;;;;;;;;;;;;;;;4997936;28;19923;-80
2021/10/16 04:44:19;;;;;;;;;;;;;;;;;;5014377;28;19917;-81
2021/10/16 04:46:45;;;;;;;;;;;;;;;;;;5014085;28;20005;-80
2021/10/16 04:49:10;;;;;;;;;;;;;;;;;;5013969;28;19984;-81
2021/10/16 04:51:35;;;;;;;;;;;;;;;;;;5014055;28;19921;-80
2021/10/16 04:54:01;;;;;;;;;;;;;;;;;;5004092;28;20339;-81
2021/10/16 04:56:26;;;;;;;;;;;;;;;;;;5017693;28;19963;-81
2021/10/16 04:58:51;;;;;;;;;;;;;;;;;;5010829;28;19921;-81
2021/10/16 05:01:16;;;;;;;;;;;;;;;;;;4994687;28;19914;-81
2021/10/16 05:03:42;;;;;;;;;;;;;;;;;;4995788;28;19917;-81
2021/10/16 05:06:07;;;;;;;;;;;;;;;;;;4998149;28;19913;-81
2021/10/16 05:08:35;;;;;;;;;;;;;;;;;;4981394;28;20008;-81
2021/10/16 05:11:00;;;;;;;;;;;;;;;;;;5013942;28;19967;-80
2021/10/16 05:13:25;;;;;;;;;;;;;;;;;;4997388;28;19925;-81
2021/10/16 05:15:51;;;;;;;;;;;;;;;;;;5013899;28;19921;-81
2021/10/16 05:18:16;;;;;;;;;;;;;;;;;;4976872;28;19916;-81
2021/10/16 05:20:41;;;;;;;;;;;;;;;;;;5012334;28;19936;-81
2021/10/16 05:23:07;;;;;;;;;;;;;;;;;;5012895;28;20322;-81
2021/10/16 05:25:32;;;;;;;;;;;;;;;;;;5012458;28;19913;-80
2021/10/16 05:27:57;;;;;;;;;;;;;;;;;;4995759;28;19924;-80
2021/10/16 05:30:23;;;;;;;;;;;;;;;;;;5012160;28;19913;-81
2021/10/16 05:32:48;;;;;;;;;;;;;;;;;;4996728;28;19917;-80
2021/10/16 05:35:14;;;;;;;;;;;;;;;;;;5011774;28;19917;-81
2021/10/16 05:37:39;;;;;;;;;;;;;;;;;;4996892;28;20008;-81
2021/10/16 05:40:05;;;;;;;;;;;;;;;;;;4996196;28;19917;-81
2021/10/16 05:42:30;;;;;;;;;;;;;;;;;;5012053;28;20681;-81
2021/10/16 05:44:55;;;;;;;;;;;;;;;;;;5012251;28;19928;-81
2021/10/16 05:47:21;;;;;;;;;;;;;;;;;;4995293;28;19925;-80
2021/10/16 05:49:46;;;;;;;;;;;;;;;;;;4980593;28;19917;-81
2021/10/16 05:52:13;;;;;;;;;;;;;;;;;;4995486;28;19926;-86
2021/10/16 05:54:38;;;;;;;;;;;;;;;;;;5009538;28;19925;-84
2021/10/16 05:57:03;;;;;;;;;;;;;;;;;;4997343;28;19913;-83
2021/10/16 05:59:28;;;;;;;;;;;;;;;;;;4996822;28;19917;-83
2021/10/16 06:01:54;;;;;;;;;;;;;;;;;;4997404;28;19921;-83
2021/10/16 06:04:19;;;;;;;;;;;;;;;;;;4998005;28;19913;-82
2021/10/16 06:06:45;;;;;;;;;;;;;;;;;;5001779;28;20047;-88
2021/10/16 06:09:10;;;;;;;;;;;;;;;;;;4981175;28;19934;-87
2021/10/16 06:11:35;;;;;;;;;;;;;;;;;;4999145;28;19971;-89
2021/10/16 06:14:02;;;;;;;;;;;;;;;;;;4999186;28;20295;-88
2021/10/16 06:16:29;;;;;;;;;;;;;;;;;;5001764;28;20335;-88
2021/10/16 06:22:16;;;;;;;;;;;;;;;;;;5045967;28;20024;-86
2021/10/16 06:24:41;;;;;;;;;;;;;;;;;;5015927;28;19953;-85
2021/10/16 06:27:06;;;;;;;;;;;;;;;;;;5000748;28;20322;-85
2021/10/16 06:29:32;;;;;;;;;;;;;;;;;;4984189;28;20008;-87
2021/10/16 06:31:57;;;;;;;;;;;;;;;;;;5001722;28;20267;-87
2021/10/16 06:34:24;;;;;;;;;;;;;;;;;;5001562;28;19936;-88
2021/10/16 06:36:50;;;;;;;;;;;;;;;;;;4987248;28;19969;-85
2021/10/16 06:39:15;;;;;;;;;;;;;;;;;;4981425;28;19921;-86
2021/10/16 06:41:41;;;;;;;;;;;;;;;;;;4993241;28;20032;-87
2021/10/16 06:44:07;;;;;;;;;;;;;;;;;;5017315;28;19944;-86
2021/10/16 06:46:34;;;;;;;;;;;;;;;;;;5000752;28;20337;-86
2021/10/16 06:49:00;;;;;;;;;;;;;;;;;;4984595;28;20359;-87
2021/10/16 06:51:26;;;;;;;;;;;;;;;;;;5000970;28;19917;-86
2021/10/16 06:53:52;;;;;;;;;;;;;;;;;;4999903;28;19952;-86
2021/10/16 06:56:19;;;;;;;;;;;;;;;;;;5000851;28;20379;-87
2021/10/16 06:58:45;;;;;;;;;;;;;;;;;;5016841;28;19948;-86
2021/10/16 07:01:11;;;;;;;;;;;;;;;;;;5001152;28;19932;-88
2021/10/16 07:03:36;;;;;;;;;;;;;;;;;;5000071;28;19917;-86
2021/10/16 07:06:03;;;;;;;;;;;;;;;;;;5000700;28;19917;-85
2021/10/16 07:08:29;;;;;;;;;;;;;;;;;;5001828;28;19917;-86
2021/10/16 07:10:55;;;;;;;;;;;;;;;;;;4998435;28;19917;-86
2021/10/16 07:13:22;;;;;;;;;;;;;;;;;;5010400;28;19913;-87
2021/10/16 07:15:47;;;;;;;;;;;;;;;;;;5009880;28;19920;-86
2021/10/16 07:18:13;;;;;;;;;;;;;;;;;;5010005;28;20294;-86
2021/10/16 07:20:39;;;;;;;;;;;;;;;;;;4999238;28;19949;-86
2021/10/16 07:23:06;;;;;;;;;;;;;;;;;;4996845;28;19960;-86
2021/10/16 07:25:31;;;;;;;;;;;;;;;;;;4999710;28;19946;-86
2021/10/16 07:27:58;;;;;;;;;;;;;;;;;;4999273;28;19917;-86
2021/10/16 07:30:24;;;;;;;;;;;;;;;;;;5000182;28;19939;-86
2021/10/16 07:32:50;;;;;;;;;;;;;;;;;;5015525;28;20426;-85
2021/10/16 07:35:16;;;;;;;;;;;;;;;;;;4999452;28;19917;-86
2021/10/16 07:37:42;;;;;;;;;;;;;;;;;;4999992;28;19917;-86
2021/10/16 07:40:07;;;;;;;;;;;;;;;;;;4999124;28;19924;-86
2021/10/16 07:42:34;;;;;;;;;;;;;;;;;;5022054;28;19924;-86
2021/10/16 07:44:59;;;;;;;;;;;;;;;;;;5016064;28;19967;-86
2021/10/16 07:47:28;;;;;;;;;;;;;;;;;;5015999;28;19913;-86
2021/10/16 07:49:54;;;;;;;;;;;;;;;;;;4999936;28;19917;-86
2021/10/16 07:52:20;;;;;;;;;;;;;;;;;;4999407;28;20375;-86
2021/10/16 07:54:50;;;;;;;;;;;;;;;;;;4999760;28;19968;-85
2021/10/16 07:57:15;;;;;;;;;;;;;;;;;;4998682;28;19924;-87
2021/10/16 07:59:41;;;;;;;;;;;;;;;;;;4999508;28;19917;-86
2021/10/16 08:02:07;;;;;;;;;;;;;;;;;;4999123;28;20283;-86
2021/10/16 08:04:34;;;;;;;;;;;;;;;;;;4982855;28;19917;-86
2021/10/16 08:07:00;;;;;;;;;;;;;;;;;;4995890;28;19940;-86
2021/10/16 08:09:25;;;;;;;;;;;;;;;;;;5002611;28;20020;-86
2021/10/16 08:11:53;;;;;;;;;;;;;;;;;;4997048;28;20017;-86
2021/10/16 08:14:18;;;;;;;;;;;;;;;;;;4995899;28;19929;-86
2021/10/16 08:16:44;;;;;;;;;;;;;;;;;;4995673;28;19917;-86
2021/10/16 08:19:11;;;;;;;;;;;;;;;;;;4998988;28;20016;-86
2021/10/16 08:21:39;;;;;;;;;;;;;;;;;;5014986;28;19927;-85
2021/10/16 08:24:05;;;;;;;;;;;;;;;;;;5014530;28;20342;-85
2021/10/16 08:26:30;;;;;;;;;;;;;;;;;;4998107;28;20000;-80
2021/10/16 08:28:56;;;;;;;;;;;;;;;;;;5014486;28;19917;-81
2021/10/16 08:31:21;;;;;;;;;;;;;;;;;;4992546;28;20067;-79
2021/10/16 08:33:47;;;;;;;;;;;;;;;;;;5014212;28;19917;-79
2021/10/16 08:36:13;;;;;;;;;;;;;;;;;;5009524;28;19924;-79
2021/10/16 08:38:38;;;;;;;;;;;;;;;;;;5014337;28;19913;-80
2021/10/16 08:41:04;;;;;;;;;;;;;;;;;;5014595;28;19928;-80
2021/10/16 08:43:29;;;;;;;;;;;;;;;;;;4998125;28;20004;-79
2021/10/16 08:45:55;;;;;;;;;;;;;;;;;;4997614;28;19917;-79
2021/10/16 08:48:21;;;;;;;;;;;;;;;;;;5014371;28;20040;-79
2021/10/16 08:50:47;;;;;;;;;;;;;;;;;;5014094;28;20059;-80
2021/10/16 08:53:12;;;;;;;;;;;;;;;;;;4996568;28;20307;-80
2021/10/16 08:55:37;;;;;;;;;;;;;;;;;;4998558;28;19985;-80
2021/10/16 08:58:03;;;;;;;;;;;;;;;;;;4997946;28;20382;-81
2021/10/16 09:00:38;;;;;;;;;;;;;;;;;;4999054;28;19924;-80
2021/10/16 09:03:22;;;;;;;;;;;;;;;;;;5011230;28;20060;-80
2021/10/16 09:05:56;;;;;;;;;;;;;;;;;;5011017;28;20402;-80
2021/10/16 09:08:29;;;;;;;;;;;;;;;;;;5028978;28;19988;-80
2021/10/16 09:11:13;;;;;;;;;;;;;;;;;;5010847;28;19940;-80
2021/10/16 09:13:47;;;;;;;;;;;;;;;;;;5032311;28;19917;-87
2021/10/16 09:16:19;;;;;;;;;;;;;;;;;;4997321;28;19921;-86
2021/10/16 09:18:50;;;;;;;;;;;;;;;;;;4994041;28;19944;-86
2021/10/16 09:21:16;;;;;;;;;;;;;;;;;;4994944;28;19924;-87
2021/10/16 09:23:42;;;;;;;;;;;;;;;;;;4978834;28;20376;-86
2021/10/16 09:26:09;;;;;;;;;;;;;;;;;;4978765;28;19913;-86
2021/10/16 09:28:38;;;;;;;;;;;;;;;;;;4978541;28;19914;-86
2021/10/16 09:31:10;;;;;;;;;;;;;;;;;;5018530;28;19917;-86
2021/10/16 09:33:46;;;;;;;;;;;;;;;;;;4998710;28;19924;-86
2021/10/16 09:36:22;;;;;;;;;;;;;;;;;;4982093;28;19917;-86
2021/10/16 09:38:50;;;;;;;;;;;;;;;;;;4981689;28;19983;-85
2021/10/16 09:41:22;;;;;;;;;;;;;;;;;;4985558;28;19968;-86
2021/10/16 09:43:47;;;;;;;;;;;;;;;;;;4985945;28;19924;-85
2021/10/16 09:46:14;;;;;;;;;;;;;;;;;;5001781;28;19913;-85
2021/10/16 09:48:40;;;;;;;;;;;;;;;;;;4984915;28;19916;-85
2021/10/16 09:51:05;;;;;;;;;;;;;;;;;;5001680;28;20525;-86
2021/10/16 09:53:31;;;;;;;;;;;;;;;;;;5001403;28;19932;-85
2021/10/16 09:56:00;;;;;;;;;;;;;;;;;;5018046;28;19913;-87
2021/10/16 09:58:25;;;;;;;;;;;;;;;;;;4985588;28;19913;-86
2021/10/16 10:00:54;;;;;;;;;;;;;;;;;;4985197;28;19917;-86
2021/10/16 10:03:24;;;;;;;;;;;;;;;;;;5000921;28;19913;-84
2021/10/16 10:05:49;;;;;;;;;;;;;;;;;;4985096;28;20375;-83
2021/10/16 10:08:17;;;;;;;;;;;;;;;;;;4984939;28;19940;-86
2021/10/16 10:10:42;;;;;;;;;;;;;;;;;;4984639;28;20391;-83
2021/10/16 10:13:08;;;;;;;;;;;;;;;;;;5000995;28;19952;-83
2021/10/16 10:15:33;;;;;;;;;;;;;;;;;;5007872;28;19979;-83
2021/10/16 10:17:59;;;;;;;;;;;;;;;;;;5016461;28;19921;-83
2021/10/16 10:20:24;;;;;;;;;;;;;;;;;;4984165;28;19913;-82
2021/10/16 10:22:49;;;;;;;;;;;;;;;;;;4998409;28;19914;-83
2021/10/16 10:25:24;;;;;;;;;;;;;;;;;;5000623;28;19917;-86
2021/10/16 10:27:49;;;;;;;;;;;;;;;;;;5000347;28;20287;-83
2021/10/16 10:30:35;;;;;;;;;;;;;;;;;;4984226;28;19913;-83
2021/10/16 10:33:15;;;;;;;;;;;;;;;;;;5000449;28;19960;-83
2021/10/16 10:35:41;;;;;;;;;;;;;;;;;;4996629;28;19919;-83
2021/10/16 10:38:25;;;;;;;;;;;;;;;;;;4980671;28;19917;-82
2021/10/16 10:40:50;;;;;;;;;;;;;;;;;;5014257;28;19917;-83
2021/10/16 10:43:16;;;;;;;;;;;;;;;;;;4989662;28;19933;-83
2021/10/16 10:45:41;;;;;;;;;;;;;;;;;;4992923;28;20430;-82
2021/10/16 10:48:08;;;;;;;;;;;;;;;;;;5000065;28;19953;-83
2021/10/16 10:50:52;;;;;;;;;;;;;;;;;;4983033;28;19917;-83
2021/10/16 10:53:28;;;;;;;;;;;;;;;;;;5014544;28;19917;-83
2021/10/16 10:56:19;;;;;;;;;;;;;;;;;;4983287;28;19921;-83
2021/10/16 10:58:56;;;;;;;;;;;;;;;;;;5016358;28;19927;-83
2021/10/16 11:01:40;;;;;;;;;;;;;;;;;;5016607;28;19979;-83
2021/10/16 11:04:05;;;;;;;;;;;;;;;;;;5015847;28;19921;-82
2021/10/16 11:06:31;;;;;;;;;;;;;;;;;;4998869;28;19917;-82
2021/10/16 11:09:12;;;;;;;;;;;;;;;;;;5016018;28;19921;-82
2021/10/16 11:11:45;;;;;;;;;;;;;;;;;;4998302;28;19921;-83
2021/10/16 11:14:10;;;;;;;;;;;;;;;;;;5001149;28;19925;-82
2021/10/16 11:16:35;;;;;;;;;;;;;;;;;;5015512;28;20483;-82
2021/10/16 11:19:01;;;;;;;;;;;;;;;;;;4988745;28;19921;-83
2021/10/16 11:21:26;;;;;;;;;;;;;;;;;;5015761;28;19960;-82
2021/10/16 11:23:51;;;;;;;;;;;;;;;;;;5015352;28;20000;-83
2021/10/16 11:26:17;;;;;;;;;;;;;;;;;;4999593;28;20334;-83
2021/10/16 11:28:45;;;;;;;;;;;;;;;;;;5015496;28;19960;-83
2021/10/16 11:31:10;;;;;;;;;;;;;;;;;;4996344;28;19921;-82
2021/10/16 11:33:38;;;;;;;;;;;;;;;;;;4963558;28;20280;-84
2021/10/16 11:36:04;;;;;;;;;;;;;;;;;;4963788;28;19920;-84
2021/10/16 11:38:31;;;;;;;;;;;;;;;;;;4963789;28;19914;-84
2021/10/16 11:40:56;;;;;;;;;;;;;;;;;;4965816;28;20015;-84
2021/10/16 11:43:26;;;;;;;;;;;;;;;;;;4998794;28;20048;-84
2021/10/16 11:45:52;;;;;;;;;;;;;;;;;;5015341;28;19924;-84
2021/10/16 11:48:18;;;;;;;;;;;;;;;;;;4982228;28;19913;-84
2021/10/16 11:50:44;;;;;;;;;;;;;;;;;;4980304;28;20386;-83
2021/10/16 11:53:17;;;;;;;;;;;;;;;;;;4999022;28;19917;-84
2021/10/16 11:55:49;;;;;;;;;;;;;;;;;;4999020;28;19917;-84
2021/10/16 11:58:18;;;;;;;;;;;;;;;;;;4998636;28;19964;-84
2021/10/16 12:00:51;;;;;;;;;;;;;;;;;;4999271;28;19923;-84
2021/10/16 12:03:17;;;;;;;;;;;;;;;;;;5014569;28;19917;-83
2021/10/16 12:05:45;;;;;;;;;;;;;;;;;;4998464;28;19928;-84
2021/10/16 12:08:20;;;;;;;;;;;;;;;;;;4995300;28;19920;-84
2021/10/16 12:10:49;;;;;;;;;;;;;;;;;;4994495;28;19924;-84
2021/10/16 12:13:14;;;;;;;;;;;;;;;;;;5000291;28;20287;-84
2021/10/16 12:15:44;;;;;;;;;;;;;;;;;;4979198;28;19913;-84
2021/10/16 12:18:25;;;;;;;;;;;;;;;;;;4989696;28;19920;-84
2021/10/16 12:20:52;;;;;;;;;;;;;;;;;;4985408;28;19939;-84
2021/10/16 12:23:18;;;;;;;;;;;;;;;;;;4982231;28;19979;-84
2021/10/16 12:25:48;;;;;;;;;;;;;;;;;;4981989;28;19920;-85
2021/10/16 12:28:13;;;;;;;;;;;;;;;;;;4982465;28;19920;-84
2021/10/16 12:31:00;;;;;;;;;;;;;;;;;;4998272;28;19913;-85
2021/10/16 12:33:25;;;;;;;;;;;;;;;;;;4997063;28;19971;-84
2021/10/16 12:35:57;;;;;;;;;;;;;;;;;;4997388;28;19921;-84
2021/10/16 12:38:23;;;;;;;;;;;;;;;;;;5013594;28;19913;-84
2021/10/16 12:40:48;;;;;;;;;;;;;;;;;;4997235;28;19924;-83
2021/10/16 12:43:23;;;;;;;;;;;;;;;;;;5014346;28;19999;-83
2021/10/16 12:45:49;;;;;;;;;;;;;;;;;;4998231;28;19960;-83
2021/10/16 12:48:35;;;;;;;;;;;;;;;;;;4997795;28;19913;-82
2021/10/16 12:51:01;;;;;;;;;;;;;;;;;;4998926;28;19917;-83
2021/10/16 12:53:26;;;;;;;;;;;;;;;;;;5015189;28;20439;-82
2021/10/16 12:55:52;;;;;;;;;;;;;;;;;;5001005;28;20000;-83
2021/10/16 12:58:17;;;;;;;;;;;;;;;;;;4970302;28;19924;-83
2021/10/16 13:00:43;;;;;;;;;;;;;;;;;;4997923;28;19992;-83
2021/10/16 13:03:10;;;;;;;;;;;;;;;;;;4998089;28;19913;-83
2021/10/16 13:05:35;;;;;;;;;;;;;;;;;;5014639;28;19960;-83
2021/10/16 13:08:00;;;;;;;;;;;;;;;;;;4996087;28;19921;-83
2021/10/16 13:10:26;;;;;;;;;;;;;;;;;;4984220;28;19928;-82
2021/10/16 13:12:51;;;;;;;;;;;;;;;;;;4998063;28;20008;-82
2021/10/16 13:15:17;;;;;;;;;;;;;;;;;;4998238;28;19917;-83
2021/10/16 13:17:42;;;;;;;;;;;;;;;;;;5017912;28;20391;-82
2021/10/16 13:20:08;;;;;;;;;;;;;;;;;;5001033;28;19921;-82
2021/10/16 13:22:33;;;;;;;;;;;;;;;;;;5001050;28;20016;-82
2021/10/16 13:25:01;;;;;;;;;;;;;;;;;;5001703;28;20375;-82
2021/10/16 13:27:27;;;;;;;;;;;;;;;;;;5018250;28;19917;-82
2021/10/16 13:29:52;;;;;;;;;;;;;;;;;;5017046;28;19917;-83
2021/10/16 13:32:19;;;;;;;;;;;;;;;;;;4987601;28;20294;-82
2021/10/16 13:34:44;;;;;;;;;;;;;;;;;;5012824;28;20563;-83
2021/10/16 13:37:10;;;;;;;;;;;;;;;;;;4996720;28;19925;-83
2021/10/16 13:39:36;;;;;;;;;;;;;;;;;;5000021;28;20414;-83
2021/10/16 13:42:01;;;;;;;;;;;;;;;;;;4994496;28;20043;-85
2021/10/16 13:44:26;;;;;;;;;;;;;;;;;;4984891;28;19948;-84
2021/10/16 13:46:52;;;;;;;;;;;;;;;;;;5000738;28;19964;-85
2021/10/16 13:49:17;;;;;;;;;;;;;;;;;;5016779;28;19963;-84
2021/10/16 13:51:44;;;;;;;;;;;;;;;;;;5017659;28;19913;-85
2021/10/16 13:54:10;;;;;;;;;;;;;;;;;;4991615;28;20490;-84
2021/10/16 13:56:38;;;;;;;;;;;;;;;;;;4984781;28;19952;-84
2021/10/16 13:59:05;;;;;;;;;;;;;;;;;;4984505;28;19979;-84
2021/10/16 14:01:30;;;;;;;;;;;;;;;;;;5000851;28;19913;-86
2021/10/16 14:03:55;;;;;;;;;;;;;;;;;;5000084;28;19948;-84
2021/10/16 14:06:21;;;;;;;;;;;;;;;;;;5014199;28;19921;-84
2021/10/16 14:08:46;;;;;;;;;;;;;;;;;;4994051;28;19944;-84
2021/10/16 14:11:11;;;;;;;;;;;;;;;;;;4986968;28;19944;-84
2021/10/16 14:13:38;;;;;;;;;;;;;;;;;;5000330;28;19933;-84
2021/10/16 14:16:04;;;;;;;;;;;;;;;;;;5014087;28;19991;-84
2021/10/16 14:18:30;;;;;;;;;;;;;;;;;;5004114;28;20375;-84
2021/10/16 14:20:56;;;;;;;;;;;;;;;;;;5001039;28;19920;-84
2021/10/16 14:23:22;;;;;;;;;;;;;;;;;;5000582;28;19917;-85
2021/10/16 14:25:50;;;;;;;;;;;;;;;;;;4994845;28;19929;-87
2021/10/16 14:28:17;;;;;;;;;;;;;;;;;;5017556;28;20370;-87
2021/10/16 14:30:42;;;;;;;;;;;;;;;;;;5000612;28;20004;-86
2021/10/16 14:33:07;;;;;;;;;;;;;;;;;;4999681;28;20343;-86
2021/10/16 14:35:32;;;;;;;;;;;;;;;;;;5000032;28;19917;-86
2021/10/16 14:37:58;;;;;;;;;;;;;;;;;;4999065;28;19913;-86
2021/10/16 14:40:23;;;;;;;;;;;;;;;;;;5000163;28;19924;-84
2021/10/16 14:42:48;;;;;;;;;;;;;;;;;;4998383;28;20317;-86
2021/10/16 14:45:14;;;;;;;;;;;;;;;;;;5000267;28;19917;-85
2021/10/16 14:47:39;;;;;;;;;;;;;;;;;;4999945;28;20287;-84
2021/10/16 14:50:05;;;;;;;;;;;;;;;;;;4995387;28;19917;-85
2021/10/16 14:52:31;;;;;;;;;;;;;;;;;;4981355;28;20003;-86
2021/10/16 14:54:56;;;;;;;;;;;;;;;;;;4996803;28;20375;-85
2021/10/16 14:57:23;;;;;;;;;;;;;;;;;;4980566;28;20004;-85
2021/10/16 14:59:49;;;;;;;;;;;;;;;;;;4999672;28;19972;-86
2021/10/16 15:02:15;;;;;;;;;;;;;;;;;;5000378;28;20260;-86
2021/10/16 15:04:40;;;;;;;;;;;;;;;;;;5014096;28;19917;-85
2021/10/16 15:07:06;;;;;;;;;;;;;;;;;;5002262;28;19917;-85
2021/10/16 15:09:32;;;;;;;;;;;;;;;;;;4990230;28;19929;-85
2021/10/16 15:11:58;;;;;;;;;;;;;;;;;;4982460;28;19921;-85
2021/10/16 15:14:25;;;;;;;;;;;;;;;;;;4999220;28;19921;-87
2021/10/16 15:16:51;;;;;;;;;;;;;;;;;;5015372;28;19917;-85
2021/10/16 15:19:17;;;;;;;;;;;;;;;;;;5000171;28;19921;-85
2021/10/16 15:21:43;;;;;;;;;;;;;;;;;;5009654;28;19923;-85
2021/10/16 15:24:11;;;;;;;;;;;;;;;;;;4992248;28;20378;-85
2021/10/16 15:26:36;;;;;;;;;;;;;;;;;;5014994;28;19921;-85
2021/10/16 15:29:03;;;;;;;;;;;;;;;;;;4998774;28;19928;-85
2021/10/16 15:31:28;;;;;;;;;;;;;;;;;;4999517;28;19913;-84
2021/10/16 15:33:54;;;;;;;;;;;;;;;;;;4999082;28;19924;-84
2021/10/16 15:36:19;;;;;;;;;;;;;;;;;;4997938;28;19917;-84
2021/10/16 15:38:45;;;;;;;;;;;;;;;;;;4998614;28;19928;-84
2021/10/16 15:41:13;;;;;;;;;;;;;;;;;;4994045;28;19969;-83
2021/10/16 15:43:39;;;;;;;;;;;;;;;;;;4993165;28;19921;-83
2021/10/16 15:46:06;;;;;;;;;;;;;;;;;;4975633;28;20442;-83
2021/10/16 15:48:33;;;;;;;;;;;;;;;;;;4991567;28;19917;-84
2021/10/16 15:50:59;;;;;;;;;;;;;;;;;;4982452;28;20008;-84
2021/10/16 15:53:28;;;;;;;;;;;;;;;;;;4991511;28;19929;-84
2021/10/16 15:55:53;;;;;;;;;;;;;;;;;;4998047;28;20280;-83
2021/10/16 15:58:27;;;;;;;;;;;;;;;;;;5110187;27;19916;-86
2021/10/16 16:00:54;;;;;;;;;;;;;;;;;;5092266;28;19923;-87
2021/10/16 16:03:21;;;;;;;;;;;;;;;;;;5073730;28;20384;-87
2021/10/16 16:05:47;;;;;;;;;;;;;;;;;;5092392;28;19920;-87
2021/10/16 16:08:13;;;;;;;;;;;;;;;;;;5091725;28;19923;-88
2021/10/16 16:10:39;;;;;;;;;;;;;;;;;;5082820;28;19916;-87
2021/10/16 16:13:04;;;;;;;;;;;;;;;;;;5084398;28;19920;-87
2021/10/16 16:15:30;;;;;;;;;;;;;;;;;;5075229;28;19912;-87
2021/10/16 16:17:56;;;;;;;;;;;;;;;;;;5075638;28;19916;-90
2021/10/16 16:20:22;;;;;;;;;;;;;;;;;;5074930;28;20377;-81
2021/10/16 16:22:47;;;;;;;;;;;;;;;;;;5090502;28;19970;-82
2021/10/16 16:25:13;;;;;;;;;;;;;;;;;;5073794;28;19919;-82
2021/10/16 16:27:38;;;;;;;;;;;;;;;;;;5106978;28;19920;-83
2021/10/16 16:30:04;;;;;;;;;;;;;;;;;;5073868;28;19927;-82
2021/10/16 16:32:29;;;;;;;;;;;;;;;;;;5071523;28;19923;-83
2021/10/16 16:34:55;;;;;;;;;;;;;;;;;;5090072;28;20397;-82
2021/10/16 16:37:20;;;;;;;;;;;;;;;;;;5087308;28;19912;-82
2021/10/16 16:39:45;;;;;;;;;;;;;;;;;;5071908;28;19916;-81
2021/10/16 16:42:13;;;;;;;;;;;;;;;;;;5090716;28;19924;-82
2021/10/16 16:44:39;;;;;;;;;;;;;;;;;;5106863;28;19916;-86